Time;durP1;ratioP1;P1;durP2;ratioP2;P2;SDS_P1;SDS_P2;PMS_P1;PMS_P2;Temp;Humidity;BMP_temperature;BMP_pressure;BME280_temperature;BME280_humidity;BME280_pressure;Samples;Min_cycle;Max_cycle;Signal;HPM_P1;HPM_P2
2022/01/07 00:00:16;;;;;;;9.93;6.95;;;;;;;13.70;71.35;101356.81;4980275;28;20040;-90
2022/01/07 00:02:46;;;;;;;12.05;8.00;;;;;;;13.84;71.38;101382.03;4996918;28;20034;-88
2022/01/07 00:05:17;;;;;;;11.48;7.28;;;;;;;13.77;71.29;101372.03;4989580;28;20040;-92
2022/01/07 00:08:24;;;;;;;10.63;7.75;;;;;;;13.91;71.39;101396.38;4978919;28;20500;-92
2022/01/07 00:10:51;;;;;;;10.35;7.72;;;;;;;13.61;71.26;101352.91;5012103;28;20038;-89
2022/01/07 00:13:17;;;;;;;11.48;7.60;;;;;;;13.77;71.66;101390.41;4975712;28;20415;-88
2022/01/07 00:15:45;;;;;;;11.05;7.72;;;;;;;13.76;71.06;101378.13;5006996;28;20028;-90
2022/01/07 00:18:12;;;;;;;10.02;7.15;;;;;;;13.82;71.46;101408.22;4978293;28;20503;-89
2022/01/07 00:20:38;;;;;;;10.45;7.20;;;;;;;13.92;71.29;101411.31;5011739;28;20120;-89
2022/01/07 00:23:05;;;;;;;10.75;7.18;;;;;;;13.68;71.02;101363.72;4994811;28;20466;-90
2022/01/07 00:25:30;;;;;;;;;;;;;;;13.90;71.66;101408.59;4994875;28;20073;-90
2022/01/07 00:27:58;;;;;;;8.88;6.82;;;;;;;13.59;71.50;101359.78;4978474;28;19921;-90
2022/01/07 00:30:24;;;;;;;10.07;7.22;;;;;;;13.90;71.31;101412.94;4978409;28;20145;-89
2022/01/07 00:32:52;;;;;;;10.25;6.97;;;;;;;13.53;71.02;101346.38;4994360;28;20221;-91
2022/01/07 00:35:20;;;;;;;10.10;6.80;;;;;;;13.91;71.04;101417.38;4977807;28;20124;-89
2022/01/07 00:37:46;;;;;;;10.98;7.10;;;;;;;13.82;71.17;101402.97;4978545;28;20568;-90
2022/01/07 00:40:13;;;;;;;;;;;;;;;13.98;71.42;101411.63;4994996;28;20038;-90
2022/01/07 00:42:41;;;;;;;8.85;6.07;;;;;;;13.61;71.14;101380.88;4994607;28;19922;-90
2022/01/07 00:45:07;;;;;;;8.85;6.47;;;;;;;13.57;71.35;101371.94;4994711;28;20040;-90
2022/01/07 00:47:35;;;;;;;10.60;6.68;;;;;;;13.82;71.16;101415.16;4993617;28;20468;-90
2022/01/07 00:50:01;;;;;;;9.30;6.25;;;;;;;13.50;71.07;101375.03;4994459;28;20034;-91
2022/01/07 00:52:28;;;;;;;8.63;6.47;;;;;;;13.71;71.61;101403.22;4994337;28;20038;-90
2022/01/07 00:54:56;;;;;;;8.68;5.88;;;;;;;13.80;71.42;101430.88;4996493;28;20026;-90
2022/01/07 00:57:23;;;;;;;10.05;6.30;;;;;;;13.75;71.51;101424.47;4981329;28;20037;-89
2022/01/07 00:59:51;;;;;;;8.00;6.10;;;;;;;13.73;70.90;101414.72;5015614;28;20085;-91
2022/01/07 01:02:17;;;;;;;8.52;6.28;;;;;;;13.77;70.82;101425.44;4982394;28;20029;-87
2022/01/07 01:04:44;;;;;;;8.57;6.35;;;;;;;13.70;71.95;101415.47;5015285;28;20407;-89
2022/01/07 01:07:11;;;;;;;9.13;6.13;;;;;;;13.49;71.54;101386.38;4975179;28;20122;-89
2022/01/07 01:09:38;;;;;;;8.00;6.05;;;;;;;13.64;71.33;101402.91;4975204;28;20027;-90
2022/01/07 01:12:07;;;;;;;7.95;5.75;;;;;;;13.84;71.44;101447.66;4975407;28;20037;-90
2022/01/07 01:14:33;;;;;;;8.38;5.82;;;;;;;13.87;71.33;101449.56;4958976;28;20117;-91
2022/01/07 01:17:00;;;;;;;9.35;6.00;;;;;;;13.70;70.60;101427.69;4959427;28;20037;-90
2022/01/07 01:19:28;;;;;;;7.97;5.82;;;;;;;13.68;71.05;101414.47;4959394;28;20027;-90
2022/01/07 01:21:58;;;;;;;7.78;5.75;;;;;;;13.82;71.29;101444.97;4959030;28;20496;-90
2022/01/07 01:24:28;;;;;;;7.50;5.60;;;;;;;13.88;71.41;101451.34;4975287;28;20112;-90
2022/01/07 01:26:54;;;;;;;9.20;5.78;;;;;;;13.85;71.25;101449.47;4976405;28;20563;-89
2022/01/07 01:29:22;;;;;;;6.68;5.22;;;;;;;13.57;71.28;101398.19;4975056;28;20027;-90
2022/01/07 01:31:49;;;;;;;8.00;5.65;;;;;;;13.89;71.35;101463.66;4976113;28;20509;-90
2022/01/07 01:34:16;;;;;;;7.57;5.70;;;;;;;13.71;71.50;101422.50;4956342;28;20490;-89
2022/01/07 01:36:42;;;;;;;9.18;6.15;;;;;;;13.89;71.27;101461.03;4971834;28;20118;-89
2022/01/07 01:39:09;;;;;;;7.10;5.40;;;;;;;13.89;70.78;101458.41;4955627;29;20059;-90
2022/01/07 01:41:41;;;;;;;7.43;5.30;;;;;;;13.65;71.35;101411.69;4971660;28;20493;-90
2022/01/07 01:44:09;;;;;;;7.47;5.20;;;;;;;13.60;71.20;101421.03;4971704;28;20066;-90
2022/01/07 01:46:36;;;;;;;7.53;5.15;;;;;;;13.69;71.27;101453.00;4971774;28;20042;-90
2022/01/07 01:49:03;;;;;;;7.13;5.32;;;;;;;13.62;71.09;101440.41;4955515;29;20054;-90
2022/01/07 01:51:29;;;;;;;6.97;5.03;;;;;;;13.73;70.89;101459.34;4971569;28;20038;-90
2022/01/07 01:53:56;;;;;;;7.00;5.00;;;;;;;13.83;70.73;101486.13;4971440;28;20024;-89
2022/01/07 01:56:22;;;;;;;6.32;5.00;;;;;;;13.83;70.58;101487.88;4955089;28;20421;-89
2022/01/07 01:58:48;;;;;;;7.25;5.00;;;;;;;13.89;71.03;101487.31;4971379;28;20042;-88
2022/01/07 02:01:14;;;;;;;5.65;4.88;;;;;;;13.75;71.24;101462.94;4971098;28;20039;-89
2022/01/07 02:03:41;;;;;;;6.57;5.20;;;;;;;13.75;70.64;101476.97;4971007;28;20038;-89
2022/01/07 02:06:07;;;;;;;6.55;5.20;;;;;;;13.72;71.19;101460.16;4954297;28;20094;-90
2022/01/07 02:08:36;;;;;;;5.40;4.43;;;;;;;13.67;70.81;101459.00;4975637;28;20051;-89
2022/01/07 02:11:04;;;;;;;6.28;4.78;;;;;;;13.63;70.94;101468.44;4977644;28;20483;-89
2022/01/07 02:13:29;;;;;;;8.00;5.05;;;;;;;13.84;71.41;101502.78;4993033;28;20033;-89
2022/01/07 02:15:55;;;;;;;6.45;4.60;;;;;;;13.67;71.36;101466.88;4992933;28;20022;-89
2022/01/07 02:18:21;;;;;;;7.97;5.20;;;;;;;13.82;71.30;101504.44;4993398;28;20030;-89
2022/01/07 02:20:48;;;;;;;6.10;4.80;;;;;;;13.88;71.01;101503.84;4994402;28;20034;-89
2022/01/07 02:23:15;;;;;;;6.88;4.70;;;;;;;13.60;71.20;101461.31;4993504;28;20033;-89
2022/01/07 02:25:41;;;;;;;6.75;5.00;;;;;;;13.78;71.12;101500.75;4992698;28;20026;-90
2022/01/07 02:28:07;;;;;;;6.10;4.60;;;;;;;13.73;71.01;101496.97;4994641;28;20515;-89
2022/01/07 02:30:33;;;;;;;5.95;4.43;;;;;;;13.62;71.07;101478.03;4992491;28;20112;-87
2022/01/07 02:33:00;;;;;;;6.03;4.45;;;;;;;13.55;71.13;101462.81;4993097;28;20571;-88
2022/01/07 02:35:28;;;;;;;7.28;4.50;;;;;;;13.79;71.02;101506.91;4976407;28;20397;-88
2022/01/07 02:37:54;;;;;;;5.50;4.38;;;;;;;13.80;71.15;101512.25;4992627;28;20416;-88
2022/01/07 02:40:20;;;;;;;5.88;4.45;;;;;;;13.69;70.99;101495.00;4992530;28;20031;-89
2022/01/07 02:42:48;;;;;;;4.90;3.75;;;;;;;13.81;70.92;101508.78;4976060;28;20044;-88
2022/01/07 02:45:14;;;;;;;5.07;3.88;;;;;;;13.58;70.99;101478.69;4991197;28;20034;-89
2022/01/07 02:47:52;;;;;;;6.22;4.25;;;;;;;13.69;70.81;101501.97;4992621;28;20407;-89
2022/01/07 02:50:20;;;;;;;6.78;4.20;;;;;;;13.61;71.11;101477.97;4977759;28;20038;-89
2022/01/07 02:52:48;;;;;;;4.72;4.03;;;;;;;13.74;71.15;101497.91;4976358;28;20069;-90
2022/01/07 02:55:14;;;;;;;5.82;4.15;;;;;;;13.87;70.86;101516.09;4992581;28;20049;-90
2022/01/07 02:57:40;;;;;;;4.82;3.90;;;;;;;13.80;71.03;101524.44;4992792;28;20532;-89
2022/01/07 03:00:07;;;;;;;5.57;4.30;;;;;;;13.48;71.21;101479.03;4993385;28;20042;-89
2022/01/07 03:02:38;;;;;;;6.75;4.30;;;;;;;13.50;71.00;101473.88;4993463;28;20037;-89
2022/01/07 03:05:05;;;;;;;5.32;3.97;;;;;;;13.77;71.33;101524.31;4975825;28;20026;-88
2022/01/07 03:07:33;;;;;;;6.65;3.92;;;;;;;13.78;71.33;101524.38;4988190;28;20051;-87
2022/01/07 03:09:59;;;;;;;5.22;3.97;;;;;;;13.69;71.40;101517.72;4963211;28;20066;-87
2022/01/07 03:12:25;;;;;;;4.97;4.07;;;;;;;13.54;71.04;101481.06;4977929;28;20489;-87
2022/01/07 03:14:52;;;;;;;5.50;4.13;;;;;;;13.47;70.94;101474.59;4973314;28;20035;-90
2022/01/07 03:17:23;;;;;;;6.03;3.63;;;;;;;13.60;71.31;101492.78;4957126;28;20472;-90
2022/01/07 03:19:50;;;;;;;5.82;3.78;;;;;;;13.66;70.92;101526.34;4972435;28;20039;-89
2022/01/07 03:22:20;;;;;;;4.88;4.00;;;;;;;13.42;71.07;101492.72;4957014;28;20027;-90
2022/01/07 03:24:47;;;;;;;5.70;4.10;;;;;;;13.71;71.06;101535.38;4967197;28;20027;-90
2022/01/07 03:27:13;;;;;;;4.15;3.75;;;;;;;13.29;70.94;101466.63;4984928;28;20031;-89
2022/01/07 03:29:39;;;;;;;4.97;4.07;;;;;;;13.62;70.81;101524.38;4972381;28;20034;-90
2022/01/07 03:32:05;;;;;;;5.40;3.90;;;;;;;13.44;71.09;101504.22;4972391;28;20035;-89
2022/01/07 03:34:31;;;;;;;4.97;4.10;;;;;;;13.61;71.04;101536.59;4972168;28;20042;-89
2022/01/07 03:36:58;;;;;;;4.25;3.65;;;;;;;13.43;71.20;101523.38;4972291;28;20027;-89
2022/01/07 03:39:24;;;;;;;6.50;3.85;;;;;;;13.56;70.94;101547.66;4972480;28;20035;-89
2022/01/07 03:41:49;;;;;;;5.47;3.60;;;;;;;13.39;71.63;101523.13;4956729;28;20030;-89
2022/01/07 03:44:15;;;;;;;4.00;3.42;;;;;;;13.42;70.75;101533.81;4956252;28;20171;-90
2022/01/07 03:46:41;;;;;;;4.13;3.25;;;;;;;13.71;70.89;101584.34;4972985;28;20037;-89
2022/01/07 03:49:06;;;;;;;4.68;3.67;;;;;;;13.65;70.88;101584.91;4956990;28;20030;-88
2022/01/07 03:51:32;;;;;;;4.07;3.60;;;;;;;13.47;70.93;101566.44;4973072;28;20042;-89
2022/01/07 03:53:58;;;;;;;4.20;3.25;;;;;;;13.64;70.74;101609.34;4956677;28;20043;-90
2022/01/07 03:56:23;;;;;;;5.43;3.45;;;;;;;13.54;71.02;101583.41;4972499;28;20081;-89
2022/01/07 03:58:58;;;;;;;5.53;3.40;;;;;;;13.72;71.24;101622.91;4972296;28;20516;-90
2022/01/07 04:01:28;;;;;;;4.15;3.35;;;;;;;13.57;70.66;101595.00;4956207;28;20424;-90
2022/01/07 04:03:55;;;;;;;4.13;3.42;;;;;;;13.34;70.77;101575.34;4971929;28;20026;-89
2022/01/07 04:06:24;;;;;;;5.05;3.50;;;;;;;13.60;71.37;101620.50;4956031;28;20030;-89
2022/01/07 04:08:51;;;;;;;5.10;3.40;;;;;;;13.61;70.94;101620.59;4978630;28;20045;-90
2022/01/07 04:11:17;;;;;;;6.30;3.10;;;;;;;13.73;70.86;101648.31;4994487;28;20036;-90
2022/01/07 04:13:44;;;;;;;4.13;3.10;;;;;;;13.64;71.01;101627.72;4994702;28;20053;-89
2022/01/07 04:16:11;;;;;;;4.30;2.97;;;;;;;13.59;70.58;101627.47;4978248;28;20033;-89
2022/01/07 04:18:41;;;;;;;4.10;3.45;;;;;;;13.47;70.70;101608.41;4977894;28;20125;-90
2022/01/07 04:21:09;;;;;;;5.68;3.20;;;;;;;13.57;70.91;101622.97;4978454;28;20049;-89
2022/01/07 04:23:34;;;;;;;5.10;2.92;;;;;;;13.56;71.10;101629.91;4993412;28;20022;-90
2022/01/07 04:26:01;;;;;;;5.38;3.10;;;;;;;13.51;70.86;101631.41;4994148;28;20052;-90
2022/01/07 04:28:26;;;;;;;3.97;2.90;;;;;;;13.57;70.90;101644.88;4978766;28;20040;-90
2022/01/07 04:30:52;;;;;;;3.25;2.95;;;;;;;13.69;70.78;101668.25;4980163;28;20034;-89
2022/01/07 04:33:26;;;;;;;3.80;3.00;;;;;;;13.73;70.46;101658.81;4998608;28;20041;-90
2022/01/07 04:35:54;;;;;;;4.47;3.50;;;;;;;13.54;70.97;101646.41;5013312;28;20577;-89
2022/01/07 04:38:20;;;;;;;3.80;3.38;;;;;;;13.54;70.27;101670.03;4998529;28;20022;-90
2022/01/07 04:40:46;;;;;;;4.22;3.10;;;;;;;13.63;70.47;101691.53;4998519;28;20555;-89
2022/01/07 04:43:13;;;;;;;3.70;3.00;;;;;;;13.66;70.45;101698.69;4982369;28;20642;-88
2022/01/07 04:45:39;;;;;;;3.72;3.00;;;;;;;13.39;71.25;101667.44;4998025;28;20038;-89
2022/01/07 04:48:06;;;;;;;3.80;2.90;;;;;;;13.53;71.16;101697.09;4981513;28;20030;-88
2022/01/07 04:50:33;;;;;;;4.65;3.17;;;;;;;13.44;70.37;101685.25;4997660;28;20681;-88
2022/01/07 04:52:58;;;;;;;4.20;3.15;;;;;;;13.68;70.74;101725.94;5015431;28;20041;-87
2022/01/07 04:55:29;;;;;;;4.15;3.10;;;;;;;13.64;70.71;101737.97;4981483;28;20033;-87
2022/01/07 04:57:56;;;;;;;3.90;2.90;;;;;;;13.52;70.88;101711.91;4982013;28;20022;-87
2022/01/07 05:00:24;;;;;;;4.15;2.90;;;;;;;13.62;70.45;101753.63;4997321;28;20034;-87
2022/01/07 05:02:50;;;;;;;3.67;3.00;;;;;;;13.64;70.80;101749.34;4997149;28;20033;-88
2022/01/07 05:05:15;;;;;;;3.92;2.95;;;;;;;13.53;70.64;101741.72;4997427;28;20137;-88
2022/01/07 05:07:42;;;;;;;3.95;2.83;;;;;;;13.52;70.85;101742.50;4994171;28;20125;-88
2022/01/07 05:10:13;;;;;;;4.88;3.05;;;;;;;13.29;70.78;101705.34;4995425;28;20038;-88
2022/01/07 05:12:39;;;;;;;3.80;3.00;;;;;;;13.60;70.24;101757.88;4993897;28;20033;-89
2022/01/07 05:15:06;;;;;;;;;;;;;;;13.69;71.38;101767.09;4994818;28;20519;-89
2022/01/07 05:17:35;;;;;;;3.97;2.87;;;;;;;13.30;70.91;101714.13;4995513;28;19921;-88
2022/01/07 05:20:01;;;;;;;3.13;2.80;;;;;;;13.12;71.01;101706.97;4994185;28;20117;-89
2022/01/07 05:22:28;;;;;;;3.22;2.92;;;;;;;13.13;70.77;101706.16;4993836;28;20570;-87
2022/01/07 05:24:54;;;;;;;4.97;2.83;;;;;;;13.32;70.95;101744.88;4977787;28;20041;-89
2022/01/07 05:27:21;;;;;;;4.00;3.15;;;;;;;13.61;71.13;101790.28;4993586;28;20030;-90
2022/01/07 05:29:52;;;;;;;3.38;2.97;;;;;;;13.24;71.42;101714.63;4994589;28;20178;-91
2022/01/07 05:32:31;;;;;;;4.10;2.70;;;;;;;13.60;71.38;101778.88;4978872;28;20019;-89
2022/01/07 05:35:03;;;;;;;4.55;3.00;;;;;;;13.46;71.17;101763.13;4978233;28;20101;-90
2022/01/07 05:37:30;;;;;;;5.05;3.05;;;;;;;13.43;71.04;101756.00;4978294;28;20488;-91
2022/01/07 05:39:57;;;;;;;3.75;2.72;;;;;;;13.48;70.77;101769.38;4977707;28;20416;-89
2022/01/07 05:42:23;;;;;;;4.38;2.70;;;;;;;13.34;71.29;101753.75;4994255;28;20057;-89
2022/01/07 05:44:49;;;;;;;3.72;2.75;;;;;;;13.31;71.23;101742.16;4977397;28;20092;-89
2022/01/07 05:47:15;;;;;;;4.47;3.22;;;;;;;13.55;71.54;101788.22;4989217;28;20501;-90
2022/01/07 05:49:41;;;;;;;4.88;2.85;;;;;;;13.44;70.82;101765.69;4974259;28;20090;-89
2022/01/07 05:52:08;;;;;;;3.20;2.78;;;;;;;13.38;70.45;101757.47;4958605;28;20058;-89
2022/01/07 05:54:33;;;;;;;5.32;3.00;;;;;;;13.50;71.18;101791.38;4974673;28;20023;-90
2022/01/07 05:57:02;;;;;;;3.25;2.70;;;;;;;13.53;71.43;101791.56;4974503;28;20125;-90
2022/01/07 05:59:27;;;;;;;3.65;2.70;;;;;;;13.41;70.85;101784.75;4980463;28;20060;-89
2022/01/07 06:01:53;;;;;;;5.65;2.80;;;;;;;13.50;70.88;101800.13;4977728;28;20056;-88
2022/01/07 06:04:18;;;;;;;3.78;2.97;;;;;;;13.38;71.02;101771.47;4993699;28;20038;-89
2022/01/07 06:06:44;;;;;;;3.83;2.92;;;;;;;13.34;70.96;101771.22;4995959;28;20019;-91
2022/01/07 06:09:10;;;;;;;3.38;2.97;;;;;;;13.42;71.73;101794.47;4981102;28;20061;-89
2022/01/07 06:11:36;;;;;;;3.45;2.70;;;;;;;13.30;71.57;101767.50;4997043;28;20430;-91
2022/01/07 06:14:04;;;;;;;4.10;3.00;;;;;;;13.47;70.94;101793.81;4996921;28;20022;-90
2022/01/07 06:16:43;;;;;;;3.40;2.72;;;;;;;13.57;71.48;101820.69;4981133;28;20033;-88
2022/01/07 06:19:09;;;;;;;4.63;3.03;;;;;;;13.11;71.26;101756.69;5030150;28;20018;-90
2022/01/07 06:21:34;;;;;;;3.92;3.05;;;;;;;13.33;71.24;101793.00;5021502;28;20061;-90
2022/01/07 06:24:04;;;;;;;2.92;2.50;;;;;;;13.15;71.29;101769.19;4981765;28;20064;-90
2022/01/07 06:26:32;;;;;;;3.72;2.78;;;;;;;13.14;71.05;101781.38;4980496;28;20030;-91
2022/01/07 06:29:08;;;;;;;3.80;2.90;;;;;;;13.57;70.68;101853.91;4981015;28;20060;-91
2022/01/07 06:31:41;;;;;;;3.57;3.03;;;;;;;13.26;71.15;101811.78;4980694;28;20041;-90
2022/01/07 06:34:06;;;;;;;3.80;3.17;;;;;;;13.28;70.22;101823.28;4997017;28;20025;-88
2022/01/07 06:36:32;;;;;;;3.97;3.22;;;;;;;13.44;70.47;101850.56;4996401;28;20087;-94
2022/01/07 06:39:07;;;;;;;5.30;3.42;;;;;;;13.40;70.64;101842.41;4981061;28;20145;-96
2022/01/07 06:41:33;;;;;;;4.30;3.03;;;;;;;13.30;70.32;101832.19;4981315;28;20432;-89
2022/01/07 06:43:59;;;;;;;3.53;2.95;;;;;;;13.26;70.46;101833.69;5006511;28;20555;-87
2022/01/07 06:46:25;;;;;;;6.35;3.75;;;;;;;13.30;70.04;101837.44;5013255;28;20034;-89
2022/01/07 06:48:58;;;;;;;5.38;3.75;;;;;;;13.29;70.74;101841.75;4996988;28;20030;-92
2022/01/07 06:51:31;;;;;;;3.80;3.38;;;;;;;13.25;70.10;101818.75;4980370;28;20440;-91
2022/01/07 06:54:04;;;;;;;4.25;3.33;;;;;;;13.50;70.71;101876.25;4996150;28;20063;-92
2022/01/07 06:56:30;;;;;;;4.35;3.50;;;;;;;13.24;70.20;101833.56;4995794;28;20026;-88
2022/01/07 06:58:55;;;;;;;4.95;3.40;;;;;;;13.41;70.88;101875.69;4995131;28;20029;-89
2022/01/07 07:01:22;;;;;;;4.28;3.47;;;;;;;13.38;70.41;101867.66;5013237;28;20034;-91
2022/01/07 07:03:50;;;;;;;5.32;3.67;;;;;;;13.21;70.42;101837.75;4979669;28;20045;-90
2022/01/07 07:06:15;;;;;;;3.83;3.25;;;;;;;13.49;70.48;101889.28;4990625;28;20030;-90
2022/01/07 07:08:41;;;;;;;4.80;3.38;;;;;;;13.24;70.43;101854.56;5012715;28;20069;-88
2022/01/07 07:11:08;;;;;;;5.07;3.70;;;;;;;12.86;69.66;101831.25;4995527;28;20518;-91
2022/01/07 07:13:34;;;;;;;6.40;3.90;;;;;;;13.12;69.81;101863.41;5012732;28;20034;-89
2022/01/07 07:16:00;;;;;;;4.82;3.20;;;;;;;13.29;69.76;101882.81;4995165;28;20022;-88
2022/01/07 07:18:26;;;;;;;4.80;3.83;;;;;;;13.05;70.38;101841.16;5008503;28;20042;-87
2022/01/07 07:20:52;;;;;;;5.97;4.30;;;;;;;12.88;70.22;101813.00;5003024;28;20108;-88
2022/01/07 07:23:17;;;;;;;5.13;3.22;;;;;;;13.35;70.48;101889.34;4995059;28;20038;-85
2022/01/07 07:25:43;;;;;;;4.82;3.72;;;;;;;13.38;70.28;101896.53;4996663;28;20031;-85
2022/01/07 07:28:09;;;;;;;5.40;3.95;;;;;;;13.10;69.85;101875.50;4992466;28;20034;-84
2022/01/07 07:30:38;;;;;;;6.43;3.67;;;;;;;13.23;70.20;101878.09;4974295;28;20101;-86
2022/01/07 07:33:30;;;;;;;6.22;3.80;;;;;;;13.26;69.78;101874.75;4993642;28;20492;-87
2022/01/07 07:38:44;;;;;;;7.38;3.80;;;;;;;13.38;70.14;101905.28;5010888;28;20404;-87
2022/01/07 07:41:12;;;;;;;;;;;;;;;13.60;69.86;101930.19;4991355;28;20161;-87
2022/01/07 07:43:38;;;;;;;6.82;4.40;;;;;;;13.49;70.10;101926.03;5011701;28;20003;-87
2022/01/07 07:46:04;;;;;;;9.07;5.07;;;;;;;13.51;70.06;101919.16;5000864;28;20037;-86
2022/01/07 07:48:32;;;;;;;6.35;3.67;;;;;;;13.47;70.10;101925.03;4994893;28;20034;-88
2022/01/07 07:50:58;;;;;;;5.32;4.20;;;;;;;13.32;69.92;101904.91;4994630;28;20061;-87
2022/01/07 07:53:25;;;;;;;5.88;4.10;;;;;;;13.39;70.36;101914.97;4979183;28;20030;-88
2022/01/07 07:55:53;;;;;;;7.07;4.20;;;;;;;13.21;70.34;101890.22;4991170;28;20034;-88
2022/01/07 07:58:20;;;;;;;8.05;4.10;;;;;;;13.17;70.26;101889.09;4990662;28;20459;-87
2022/01/07 08:00:46;;;;;;;6.18;4.10;;;;;;;13.50;70.20;101939.22;4980344;28;20026;-88
2022/01/07 08:03:18;;;;;;;5.15;3.85;;;;;;;13.40;70.35;101915.88;4971390;28;20027;-87
2022/01/07 08:05:44;;;;;;;6.35;4.47;;;;;;;13.49;70.53;101932.19;4988713;28;20073;-88
2022/01/07 08:08:10;;;;;;;6.07;3.63;;;;;;;13.12;70.81;101866.03;4991150;28;20069;-87
2022/01/07 08:10:44;;;;;;;5.28;3.80;;;;;;;13.10;70.55;101865.03;4994612;28;20400;-87
2022/01/07 08:18:23;;;;;;;5.72;3.80;;;;;;;13.44;70.29;101942.41;4997242;28;20037;-86
2022/01/07 08:20:50;;;;;;;5.82;3.60;;;;;;;13.46;70.71;101946.81;4992415;28;20472;-86
2022/01/07 08:23:16;;;;;;;5.53;3.40;;;;;;;12.92;72.49;101896.28;4987116;28;20033;-89
2022/01/07 08:25:42;;;;;;;6.05;3.20;;;;;;;13.21;70.90;101917.34;5005777;28;20427;-88
2022/01/07 08:28:13;;;;;;;3.72;3.00;;;;;;;13.22;69.89;101861.44;5001155;28;20499;-89
2022/01/07 08:36:22;;;;;;;6.90;3.72;;;;;;;13.34;70.06;101886.66;4995348;28;20033;-89
2022/01/07 08:38:48;;;;;;;5.68;3.40;;;;;;;13.61;69.47;101945.16;4972652;28;20119;-86
2022/01/07 08:41:15;;;;;;;5.63;3.35;;;;;;;13.56;69.76;101946.56;4974755;28;20516;-89
2022/01/07 08:43:40;;;;;;;4.47;3.20;;;;;;;13.11;69.71;101864.22;4958362;28;20106;-88
2022/01/07 08:46:06;;;;;;;6.03;3.17;;;;;;;13.58;69.85;101952.81;4991053;28;20026;-88
2022/01/07 08:48:32;;;;;;;7.93;3.55;;;;;;;13.59;70.24;101931.94;4973529;28;20030;-88
2022/01/07 08:50:58;;;;;;;5.18;3.50;;;;;;;13.64;69.93;101947.94;4979170;28;20034;-88
2022/01/07 08:53:25;;;;;;;5.45;3.40;;;;;;;13.58;69.84;101953.72;4977955;28;20032;-89
2022/01/07 08:55:55;;;;;;;5.28;2.88;;;;;;;13.63;70.13;101948.75;4994050;28;20030;-91
2022/01/07 08:58:23;;;;;;;6.93;3.03;;;;;;;13.52;70.69;101939.31;4977755;28;20061;-90
2022/01/07 09:00:50;;;;;;;7.25;3.38;;;;;;;13.73;70.93;101959.00;4994066;28;20120;-88
2022/01/07 09:03:18;;;;;;;4.10;2.80;;;;;;;13.58;70.40;101958.97;4993894;28;20514;-89
2022/01/07 09:05:44;;;;;;;5.22;2.95;;;;;;;13.31;70.74;101910.94;5011555;28;20589;-90
2022/01/07 09:08:12;;;;;;;4.35;3.13;;;;;;;13.62;70.81;101963.59;4980886;28;20034;-89
2022/01/07 09:10:38;;;;;;;4.68;2.70;;;;;;;13.42;70.15;101938.78;4978851;28;20122;-89
2022/01/07 09:13:03;;;;;;;;;;;;;;;13.69;71.15;101969.22;4990751;28;20035;-89
2022/01/07 09:15:29;;;;;;;5.43;3.53;;;;;;;13.50;70.96;101943.56;4999481;28;20327;-89
2022/01/07 09:17:55;;;;;;;6.03;3.38;;;;;;;13.65;70.11;101981.25;4975720;28;20031;-89
2022/01/07 09:20:23;;;;;;;6.45;3.53;;;;;;;13.75;70.18;101974.84;4976089;28;20030;-89
2022/01/07 09:22:53;;;;;;;5.25;3.38;;;;;;;13.62;70.12;101960.97;4976229;28;20173;-89
2022/01/07 09:25:20;;;;;;;3.42;2.90;;;;;;;13.41;70.23;101917.69;4991282;28;20023;-89
2022/01/07 09:27:45;;;;;;;3.78;3.03;;;;;;;13.61;70.45;101945.16;4992697;28;20045;-89
2022/01/07 09:30:12;;;;;;;3.58;2.70;;;;;;;13.60;71.29;101943.31;4974507;28;20109;-88
2022/01/07 09:32:37;;;;;;;;;;;;;;;13.67;71.51;101942.88;4999089;28;20073;-89
2022/01/07 09:35:06;;;;;;;3.92;2.70;;;;;;;13.63;71.67;101946.13;4970158;28;19917;-89
2022/01/07 09:37:32;;;;;;;3.80;2.95;;;;;;;13.55;71.20;101927.31;4993962;28;20532;-88
2022/01/07 09:40:00;;;;;;;4.13;3.20;;;;;;;13.36;71.23;101895.53;4979439;28;20073;-88
2022/01/07 09:42:27;;;;;;;5.60;3.13;;;;;;;13.59;71.44;101928.41;4977887;28;20035;-89
2022/01/07 09:44:53;;;;;;;6.63;3.10;;;;;;;13.54;71.61;101933.34;4981953;28;20057;-89
2022/01/07 09:47:19;;;;;;;6.90;3.10;;;;;;;13.30;71.40;101880.31;4973782;28;20031;-88
2022/01/07 09:49:45;;;;;;;7.47;2.97;;;;;;;13.56;71.63;101928.19;4973612;28;20039;-88
2022/01/07 09:52:11;;;;;;;6.88;3.20;;;;;;;13.02;71.98;101836.63;4985771;28;20037;-88
2022/01/07 09:54:39;;;;;;;6.45;3.10;;;;;;;13.64;71.76;101946.22;4974085;28;20031;-87
2022/01/07 09:57:06;;;;;;;5.40;3.17;;;;;;;13.69;71.93;101940.34;4975911;28;20030;-88
2022/01/07 09:59:33;;;;;;;6.70;3.53;;;;;;;13.36;72.01;101880.69;4984315;28;20408;-88
2022/01/07 10:02:03;;;;;;;8.13;3.40;;;;;;;13.65;72.40;101941.88;4975264;28;20031;-88
2022/01/07 10:04:36;;;;;;;9.45;3.47;;;;;;;13.52;72.34;101923.56;4987958;28;20045;-88
2022/01/07 10:07:22;;;;;;;9.52;3.53;;;;;;;13.63;72.70;101941.81;4974882;28;20043;-88
2022/01/07 10:10:04;;;;;;;8.70;3.38;;;;;;;13.66;72.70;101942.81;4989923;28;20027;-87
2022/01/07 10:12:47;;;;;;;9.18;3.45;;;;;;;13.58;72.79;101929.19;4999548;28;20023;-88
2022/01/07 10:15:18;;;;;;;7.53;3.38;;;;;;;13.69;72.79;101940.34;4994088;28;20389;-88
2022/01/07 10:18:05;;;;;;;7.45;3.65;;;;;;;13.66;72.64;101937.56;4992659;28;20027;-88
2022/01/07 10:20:32;;;;;;;7.70;3.30;;;;;;;13.67;72.99;101936.72;5005717;28;20496;-88
2022/01/07 10:23:04;;;;;;;8.73;3.60;;;;;;;13.49;72.55;101886.66;4993243;28;20034;-88
2022/01/07 10:25:32;;;;;;;9.35;3.75;;;;;;;13.69;72.57;101927.22;4993706;28;20033;-90
2022/01/07 10:28:11;;;;;;;8.75;3.50;;;;;;;13.51;72.79;101887.66;4992486;28;20476;-89
2022/01/07 10:30:50;;;;;;;6.82;3.25;;;;;;;13.69;72.77;101932.47;4976943;28;20085;-89
2022/01/07 10:33:44;;;;;;;7.35;3.28;;;;;;;13.63;73.04;101919.88;4968189;28;20398;-89
2022/01/07 10:36:09;;;;;;;8.57;3.30;;;;;;;13.73;72.91;101935.38;4969176;28;20045;-89
2022/01/07 10:38:46;;;;;;;10.33;4.17;;;;;;;13.40;73.76;101881.78;4994237;28;20031;-89
2022/01/07 10:41:13;;;;;;;9.27;3.88;;;;;;;13.73;73.57;101916.09;4976533;28;20865;-89
2022/01/07 10:43:39;;;;;;;8.45;3.60;;;;;;;13.57;73.94;101888.03;4992769;28;20100;-89
2022/01/07 10:46:11;;;;;;;;;;;;;;;13.76;74.04;101925.06;4992284;28;20038;-88
2022/01/07 10:48:59;;;;;;;8.55;3.63;;;;;;;13.70;74.42;101924.69;4999860;28;20295;-88
2022/01/07 10:51:41;;;;;;;13.95;4.03;;;;;;;13.65;74.90;101928.75;4975367;28;20412;-88
2022/01/07 10:54:10;;;;;;;10.77;4.63;;;;;;;13.49;75.97;101903.31;4964899;28;20030;-88
2022/01/07 10:56:40;;;;;;;12.43;4.18;;;;;;;13.70;75.92;101931.69;4961468;28;20031;-88
2022/01/07 10:59:14;;;;;;;14.25;4.13;;;;;;;13.43;76.06;101895.06;4959162;28;20210;-88
2022/01/07 11:01:48;;;;;;;15.82;4.70;;;;;;;13.66;76.39;101924.44;4985281;28;20049;-88
2022/01/07 11:04:18;;;;;;;14.05;4.57;;;;;;;13.64;76.72;101933.09;4976074;28;20034;-88
2022/01/07 11:06:44;;;;;;;15.15;4.70;;;;;;;13.59;77.02;101924.06;4979819;28;20030;-88
2022/01/07 11:09:12;;;;;;;16.63;4.97;;;;;;;13.60;78.38;101936.34;4959929;28;20049;-88
2022/01/07 11:12:00;;;;;;;14.07;4.80;;;;;;;13.53;77.82;101936.81;4975974;28;20542;-89
2022/01/07 11:14:29;;;;;;;12.60;4.93;;;;;;;13.18;78.60;101869.03;4968646;28;20470;-88
2022/01/07 11:16:58;;;;;;;15.15;5.45;;;;;;;13.63;78.38;101933.00;4998607;28;20065;-88
2022/01/07 11:19:31;;;;;;;17.45;4.85;;;;;;;13.48;77.80;101900.59;4982989;28;20116;-88
2022/01/07 11:21:59;;;;;;;13.95;5.00;;;;;;;13.68;78.17;101941.19;4987328;28;20064;-87
2022/01/07 11:24:51;;;;;;;14.48;5.30;;;;;;;13.52;77.40;101911.34;5001360;28;20092;-87
2022/01/07 11:27:26;;;;;;;9.65;4.70;;;;;;;13.69;78.52;101950.84;4990881;28;20036;-87
2022/01/07 11:30:08;;;;;;;10.00;4.50;;;;;;;13.65;78.29;101944.50;5023099;28;20033;-87
2022/01/07 11:32:37;;;;;;;11.18;4.82;;;;;;;13.20;79.38;101880.50;4999135;28;20416;-88
2022/01/07 11:35:40;;;;;;;13.98;4.97;;;;;;;13.69;78.36;101945.59;5007874;28;20111;-88
2022/01/07 11:38:13;;;;;;;17.17;4.85;;;;;;;13.54;78.62;101914.09;4964839;28;20135;-87
2022/01/07 11:40:41;;;;;;;14.27;5.07;;;;;;;13.67;79.66;101957.72;4995028;28;20502;-88
2022/01/07 11:43:18;;;;;;;12.48;4.97;;;;;;;13.73;78.41;101951.13;5012146;28;20121;-86
2022/01/07 11:45:45;;;;;;;9.52;5.10;;;;;;;13.54;78.47;101921.97;5010203;28;20032;-86